Time;durP1;ratioP1;P1;durP2;ratioP2;P2;SDS_P1;SDS_P2;PMS_P1;PMS_P2;Temp;Humidity;BMP_temperature;BMP_pressure;BME280_temperature;BME280_humidity;BME280_pressure;Samples;Min_cycle;Max_cycle;Signal;HPM_P1;HPM_P2
2023/05/06 00:00:39;;;;;;;21.43;19.23;;;16.40;87.90;;;19.14;58.67;101524.56;5034747;28;20195;-67
2023/05/06 00:03:06;;;;;;;23.10;20.57;;;16.30;87.80;;;19.12;58.23;101525.81;5034240;28;20198;-67
2023/05/06 00:05:35;;;;;;;20.80;18.60;;;16.30;87.90;;;19.09;58.51;101520.91;5034438;28;20245;-67
2023/05/06 00:08:03;;;;;;;18.87;17.07;;;16.30;88.10;;;19.08;58.69;101524.59;5033904;28;20504;-67
2023/05/06 00:10:30;;;;;;;23.30;19.37;;;16.20;88.00;;;19.05;58.62;101525.03;5033175;28;20202;-67
2023/05/06 00:12:57;;;;;;;21.20;19.10;;;16.20;87.90;;;19.05;58.92;101531.19;5033116;28;20214;-67
2023/05/06 00:15:24;;;;;;;23.10;20.70;;;16.30;88.40;;;19.05;59.02;101535.69;5047465;28;20234;-67
2023/05/06 00:17:51;;;;;;;22.57;20.30;;;16.20;88.40;;;19.05;58.95;101525.03;5051542;28;20209;-67
2023/05/06 00:20:18;;;;;;;19.97;17.80;;;16.20;88.30;;;19.06;58.86;101516.00;5034215;28;20198;-67
2023/05/06 00:22:46;;;;;;;23.13;20.77;;;16.20;88.30;;;19.09;58.84;101526.25;5034019;28;20194;-67
2023/05/06 00:25:13;;;;;;;22.33;20.00;;;16.20;88.30;;;19.12;58.55;101525.81;5034046;28;20226;-66
2023/05/06 00:27:40;;;;;;;22.97;20.63;;;16.30;88.30;;;19.11;58.76;101529.53;5033885;28;20195;-67
2023/05/06 00:30:09;;;;;;;22.50;20.00;;;16.30;88.30;;;19.10;58.71;101522.53;5034474;28;20273;-67
2023/05/06 00:32:37;;;;;;;20.90;18.80;;;16.20;88.30;;;19.11;58.81;101529.53;5034264;28;20654;-67
2023/05/06 00:35:05;;;;;;;37.90;28.10;;;16.20;88.30;;;19.11;58.61;101524.19;5033934;28;20222;-67
2023/05/06 00:37:32;;;;;;;20.27;18.30;;;16.20;88.40;;;19.14;58.55;101531.75;5034214;28;20199;-66
2023/05/06 00:40:01;;;;;;;20.03;18.20;;;16.30;88.60;;;19.15;58.49;101533.41;5033960;28;20217;-66
2023/05/06 00:42:28;;;;;;;18.47;16.73;;;16.30;88.60;;;19.16;58.72;101532.38;5033696;28;20193;-66
2023/05/06 00:44:55;;;;;;;18.67;16.83;;;16.20;88.50;;;19.14;58.47;101537.91;5033723;28;20555;-67
2023/05/06 00:47:23;;;;;;;17.27;15.47;;;16.30;88.40;;;19.16;58.37;101532.38;5033975;28;20187;-67
2023/05/06 00:49:50;;;;;;;16.57;14.97;;;16.30;88.30;;;19.16;58.64;101537.72;5033612;28;20655;-66
2023/05/06 00:52:18;;;;;;;17.80;16.00;;;16.30;88.30;;;19.15;58.33;101541.41;5033388;28;20194;-67
2023/05/06 00:54:45;;;;;;;16.80;15.20;;;16.30;88.40;;;19.14;58.32;101543.25;5033592;28;20297;-66
2023/05/06 00:57:14;;;;;;;15.97;14.57;;;16.20;88.20;;;19.14;58.54;101545.09;5033825;28;20186;-66
2023/05/06 00:59:43;;;;;;;15.53;14.07;;;16.20;88.80;;;19.13;58.27;101543.47;5033812;28;20203;-66
2023/05/06 01:02:10;;;;;;;14.17;12.83;;;16.20;87.70;;;19.10;58.18;101549.22;5033277;28;20213;-67
2023/05/06 01:04:37;;;;;;;14.67;13.23;;;16.20;87.40;;;19.08;58.43;101545.94;5032086;28;20218;-67
2023/05/06 01:07:15;;;;;;;14.27;12.93;;;16.20;87.50;;;19.04;58.18;101544.75;5032719;28;20245;-67
2023/05/06 01:09:56;;;;;;;12.93;11.73;;;16.20;87.50;;;19.02;58.13;101538.81;5032836;28;20582;-67
2023/05/06 01:12:32;;;;;;;13.37;12.07;;;16.20;87.40;;;19.02;58.01;101542.25;5033523;28;20204;-66
2023/05/06 01:15:08;;;;;;;14.10;12.70;;;16.20;87.40;;;19.05;58.06;101541.03;5022645;28;20223;-66
2023/05/06 01:17:42;;;;;;;16.27;14.70;;;16.20;87.60;;;19.04;57.96;101537.53;5013819;28;20206;-67
2023/05/06 01:20:11;;;;;;;14.57;13.13;;;16.10;87.40;;;19.07;58.19;101538.97;5032935;28;20222;-66
2023/05/06 01:22:38;;;;;;;14.23;12.93;;;16.20;87.60;;;19.10;58.13;101543.88;5033368;28;20187;-66
2023/05/06 01:25:18;;;;;;;16.53;14.80;;;16.10;87.60;;;19.11;58.22;101545.53;5033297;28;20210;-67
2023/05/06 01:27:45;;;;;;;14.77;13.33;;;16.20;87.80;;;19.15;58.22;101546.75;5033087;28;20190;-67
2023/05/06 01:30:14;;;;;;;13.47;12.17;;;16.20;87.80;;;19.16;57.83;101553.75;5033448;28;20948;-67
2023/05/06 01:32:57;;;;;;;15.90;14.33;;;16.20;87.70;;;19.15;57.98;101554.75;5033124;28;20201;-66
2023/05/06 01:35:39;;;;;;;17.63;15.73;;;16.20;87.70;;;19.14;57.89;101555.78;5033651;28;20210;-67
2023/05/06 01:38:17;;;;;;;18.30;16.40;;;16.20;87.80;;;19.09;58.17;101552.94;5033269;28;20194;-67
2023/05/06 01:40:53;;;;;;;17.23;15.43;;;16.20;87.50;;;19.06;57.85;101558.69;5033612;28;20166;-68
2023/05/06 01:43:22;;;;;;;21.40;16.67;;;16.20;87.60;;;19.03;58.03;101554.59;5032861;28;20198;-67
2023/05/06 01:45:53;;;;;;;19.90;17.57;;;16.20;87.40;;;18.99;57.97;101556.06;5032720;28;20214;-67
2023/05/06 01:48:24;;;;;;;25.57;20.20;;;16.10;87.30;;;18.97;58.18;101566.09;5033512;28;20210;-67
2023/05/06 01:50:51;;;;;;;27.43;21.07;;;16.10;87.30;;;18.96;57.83;101559.13;5033516;28;20198;-66
2023/05/06 01:53:18;;;;;;;27.53;20.57;;;16.10;87.50;;;18.96;57.97;101558.31;5032980;28;20198;-67
2023/05/06 01:55:47;;;;;;;30.93;22.13;;;16.10;87.50;;;18.97;58.11;101565.28;5033605;28;20297;-67
2023/05/06 01:58:14;;;;;;;25.70;19.67;;;16.10;87.60;;;18.95;58.02;101562.81;5033595;28;20191;-67
2023/05/06 02:00:41;;;;;;;26.50;19.57;;;16.00;87.50;;;18.96;58.13;101564.47;5033505;28;20678;-68
2023/05/06 02:03:08;;;;;;;22.13;18.43;;;16.10;87.70;;;18.97;57.80;101573.31;5033356;28;20194;-67
2023/05/06 02:05:35;;;;;;;20.07;14.73;;;16.00;87.40;;;18.96;58.04;101569.81;5033711;28;20226;-67
2023/05/06 02:08:02;;;;;;;16.37;14.63;;;16.00;87.10;;;18.93;57.53;101570.22;5032696;28;20313;-66
2023/05/06 02:10:29;;;;;;;22.53;14.53;;;16.00;86.80;;;18.87;57.63;101577.19;5033761;28;20598;-66
2023/05/06 02:12:58;;;;;;;15.30;13.40;;;16.00;86.70;;;18.83;57.41;101570.63;5033254;28;20199;-66
2023/05/06 02:15:25;;;;;;;16.20;13.73;;;15.90;86.40;;;18.79;57.59;101577.44;5035880;28;20658;-67
2023/05/06 02:17:52;;;;;;;17.13;15.07;;;15.90;87.10;;;18.77;57.82;101565.31;5037739;28;20655;-66
2023/05/06 02:20:19;;;;;;;16.47;14.17;;;15.90;86.40;;;18.73;57.28;101559.56;5037069;28;20249;-66
2023/05/06 02:22:46;;;;;;;15.07;13.57;;;15.90;86.60;;;18.70;57.29;101565.34;5037249;28;20721;-66
2023/05/06 02:25:13;;;;;;;13.57;12.27;;;15.80;86.30;;;18.69;57.37;101568.19;5037149;28;20551;-66
2023/05/06 02:27:40;;;;;;;20.10;17.13;;;15.80;86.20;;;18.64;57.30;101574.16;5037274;28;20221;-67
2023/05/06 02:30:09;;;;;;;16.93;15.23;;;15.80;86.00;;;18.58;57.21;101561.66;5036688;28;20190;-65
2023/05/06 02:32:36;;;;;;;14.23;12.73;;;15.80;85.80;;;18.54;57.20;101570.28;5036074;28;20659;-66
2023/05/06 02:35:04;;;;;;;13.10;11.70;;;15.70;85.70;;;18.48;57.42;101571.09;5036257;28;20253;-66
2023/05/06 02:37:31;;;;;;;14.37;12.07;;;15.70;85.90;;;18.44;57.46;101576.00;5036555;28;20199;-65
2023/05/06 02:39:58;;;;;;;15.63;11.60;;;15.60;85.80;;;18.41;57.32;101570.22;5035991;28;20194;-66
2023/05/06 02:42:25;;;;;;;13.73;11.30;;;15.60;85.90;;;18.36;57.54;101580.69;5036381;28;20576;-66
2023/05/06 02:44:52;;;;;;;14.10;10.87;;;15.60;85.90;;;18.32;57.51;101580.28;5036255;28;20210;-66
2023/05/06 02:47:39;;;;;;;11.73;10.53;;;15.50;85.90;;;18.26;57.39;101581.09;5035249;28;20308;-65
2023/05/06 02:50:07;;;;;;;12.07;10.27;;;15.50;85.90;;;18.22;57.63;101582.53;5036247;28;20238;-65
2023/05/06 02:52:34;;;;;;;12.23;10.70;;;15.40;85.80;;;18.18;57.62;101581.31;5035926;28;20499;-66
2023/05/06 02:55:01;;;;;;;11.93;10.63;;;15.40;86.00;;;18.16;57.63;101581.50;5035782;28;20211;-66
2023/05/06 02:57:28;;;;;;;14.50;10.50;;;15.40;86.30;;;18.14;57.77;101574.72;5034827;28;20581;-66
2023/05/06 02:59:55;;;;;;;11.67;10.17;;;15.30;86.40;;;18.12;57.77;101571.44;5035700;28;20195;-67
2023/05/06 03:02:22;;;;;;;11.77;10.57;;;15.20;86.50;;;18.09;57.72;101577.22;5035989;28;20305;-66
2023/05/06 03:04:51;;;;;;;11.73;9.77;;;15.30;86.50;;;18.07;57.87;101573.91;5035486;28;20242;-67
2023/05/06 03:07:19;;;;;;;12.73;10.93;;;15.20;86.60;;;18.04;58.03;101574.31;5035014;28;20571;-66
2023/05/06 03:09:45;;;;;;;12.17;10.70;;;15.20;86.70;;;18.01;57.83;101564.06;5035783;28;20566;-66
2023/05/06 03:12:12;;;;;;;13.97;11.17;;;15.20;86.60;;;17.97;57.75;101570.81;5035540;28;20191;-66
2023/05/06 03:14:39;;;;;;;10.13;9.23;;;15.20;86.80;;;17.96;57.87;101555.84;5035190;28;20222;-66
2023/05/06 03:17:06;;;;;;;12.17;10.87;;;15.10;86.80;;;17.94;58.33;101555.25;5035692;28;20191;-66
2023/05/06 03:19:33;;;;;;;15.77;10.97;;;15.10;86.90;;;17.92;58.43;101554.63;5035722;28;20191;-66
2023/05/06 03:22:02;;;;;;;12.60;10.60;;;15.10;86.90;;;17.87;58.70;101551.75;5035639;28;20194;-66
2023/05/06 03:24:29;;;;;;;15.70;10.93;;;15.10;87.30;;;17.83;58.79;101555.84;5035078;28;20206;-66
2023/05/06 03:26:57;;;;;;;14.47;9.50;;;15.10;87.30;;;17.79;58.41;101558.06;5035119;28;20213;-66
2023/05/06 03:29:24;;;;;;;11.33;9.23;;;15.10;87.10;;;17.75;58.53;101558.69;5035313;28;20191;-66
2023/05/06 03:31:51;;;;;;;12.07;9.67;;;15.00;86.90;;;17.69;58.51;101564.78;5034051;28;20191;-66
2023/05/06 03:34:18;;;;;;;12.50;9.47;;;15.00;86.70;;;17.64;58.32;101562.72;5035609;28;20225;-66
2023/05/06 03:36:45;;;;;;;15.60;9.57;;;14.90;86.80;;;17.59;58.36;101560.66;5035379;28;20650;-66
2023/05/06 03:39:13;;;;;;;11.70;9.20;;;14.90;87.00;;;17.57;58.82;101562.72;5034936;28;20214;-66
2023/05/06 03:41:40;;;;;;;11.37;8.33;;;14.80;87.20;;;17.56;58.40;101570.91;5034888;28;20202;-66
2023/05/06 03:44:07;;;;;;;14.13;9.47;;;14.80;87.10;;;17.54;58.42;101573.75;5034801;28;20218;-66
2023/05/06 03:46:34;;;;;;;11.03;8.80;;;14.80;87.20;;;17.55;58.40;101577.25;5034864;28;20689;-65
2023/05/06 03:49:01;;;;;;;12.07;9.60;;;14.70;87.20;;;17.54;58.52;101573.75;5034861;28;20202;-66
2023/05/06 03:51:29;;;;;;;12.10;8.70;;;14.70;87.30;;;17.54;58.36;101581.75;5035120;28;20605;-66
2023/05/06 03:53:57;;;;;;;16.20;9.90;;;14.70;87.30;;;17.54;58.44;101578.28;5034587;28;20206;-65
2023/05/06 03:56:25;;;;;;;9.03;8.13;;;14.70;87.40;;;17.56;58.50;101568.25;5035198;28;20186;-66
2023/05/06 03:58:55;;;;;;;9.63;8.43;;;14.70;87.60;;;17.58;58.92;101579.53;5035325;28;20675;-65
2023/05/06 04:01:22;;;;;;;10.00;8.47;;;14.70;88.20;;;17.64;58.88;101572.59;5034934;28;20198;-65
2023/05/06 04:03:49;;;;;;;10.27;8.80;;;14.70;88.10;;;17.70;59.14;101582.44;5034959;28;20187;-65
2023/05/06 04:06:16;;;;;;;14.20;9.40;;;14.80;88.80;;;17.80;59.30;101585.53;5034935;28;20214;-65
2023/05/06 04:08:43;;;;;;;12.67;9.77;;;14.80;88.80;;;17.88;58.84;101591.47;5034154;28;20523;-65
2023/05/06 04:11:10;;;;;;;12.83;9.67;;;14.90;88.00;;;17.93;58.47;101591.72;5014897;28;20191;-65
2023/05/06 04:13:38;;;;;;;10.67;9.10;;;14.90;87.90;;;17.98;58.42;101591.09;5027691;28;20260;-65
2023/05/06 04:16:06;;;;;;;11.87;9.27;;;15.00;87.90;;;18.01;58.41;101591.53;5034082;28;20202;-67
2023/05/06 04:18:33;;;;;;;10.63;9.57;;;15.10;87.70;;;18.06;58.27;101596.25;5034682;28;20201;-65
2023/05/06 04:21:00;;;;;;;11.97;9.47;;;15.10;87.40;;;18.09;57.97;101595.84;5034376;28;20198;-66
2023/05/06 04:23:27;;;;;;;13.27;10.50;;;15.20;87.10;;;18.12;57.95;101593.59;5034177;28;20240;-65
2023/05/06 04:25:54;;;;;;;11.97;8.80;;;15.20;86.70;;;18.15;57.74;101600.38;5034000;28;20210;-65
2023/05/06 04:28:21;;;;;;;16.90;10.00;;;15.20;86.80;;;18.18;57.67;101602.63;5034478;28;20272;-65
2023/05/06 04:30:49;;;;;;;12.13;9.17;;;15.20;86.40;;;18.19;57.43;101601.59;5032837;28;20203;-65
2023/05/06 04:33:16;;;;;;;11.67;9.73;;;15.20;86.00;;;18.20;57.47;101612.06;5033942;28;20190;-66
2023/05/06 04:35:52;;;;;;;12.77;10.40;;;15.20;86.30;;;18.23;57.26;101616.16;5033819;28;20214;-66
2023/05/06 04:38:25;;;;;;;9.60;8.57;;;15.20;86.30;;;18.28;57.25;101621.69;5033456;28;20190;-66
2023/05/06 04:40:52;;;;;;;10.63;9.53;;;15.30;86.40;;;18.31;57.10;101618.63;5034160;28;20293;-67
2023/05/06 04:43:19;;;;;;;10.67;8.57;;;15.30;86.10;;;18.34;57.04;101618.22;5033524;28;20199;-65
2023/05/06 04:45:49;;;;;;;12.60;10.00;;;15.30;86.10;;;18.39;56.86;101620.28;5033791;28;20679;-67
2023/05/06 04:48:21;;;;;;;11.53;10.43;;;15.40;86.40;;;18.39;56.59;101621.09;5034078;28;20214;-65
2023/05/06 04:50:48;;;;;;;12.40;10.43;;;15.40;85.30;;;18.39;56.47;101621.09;5033885;28;20214;-65
2023/05/06 04:53:15;;;;;;;13.73;10.53;;;15.40;85.40;;;18.41;56.86;101628.88;5033691;28;20199;-65
2023/05/06 04:55:42;;;;;;;12.87;10.07;;;15.40;85.20;;;18.44;56.41;101628.50;5033903;28;20238;-66
2023/05/06 04:58:09;;;;;;;13.20;10.50;;;15.50;85.20;;;18.46;56.40;101626.47;5033453;28;20196;-66
2023/05/06 05:00:36;;;;;;;12.50;10.23;;;15.50;84.70;;;18.47;56.37;101626.25;5033675;28;20198;-66
2023/05/06 05:03:03;;;;;;;10.63;9.40;;;15.40;84.50;;;18.48;56.04;101635.91;5033266;28;20561;-66
2023/05/06 05:05:33;;;;;;;11.20;9.97;;;15.40;84.30;;;18.45;55.59;101627.44;5033517;28;20214;-66
2023/05/06 05:08:00;;;;;;;12.83;10.50;;;15.40;83.90;;;18.39;55.71;101629.09;5033038;28;20804;-66
2023/05/06 05:10:27;;;;;;;10.93;9.43;;;15.40;83.60;;;18.35;55.94;101627.84;5033326;28;20198;-67
2023/05/06 05:12:53;;;;;;;12.17;10.53;;;15.40;83.90;;;18.33;55.89;101637.91;5033505;28;20195;-66
2023/05/06 05:15:21;;;;;;;14.83;10.67;;;15.40;83.80;;;18.31;55.68;101639.13;5031932;28;20305;-66
2023/05/06 05:17:49;;;;;;;12.53;10.20;;;15.40;83.80;;;18.29;55.71;101642.00;5033381;28;20674;-66
2023/05/06 05:20:20;;;;;;;11.17;9.97;;;15.30;83.80;;;18.26;55.80;101647.72;5033232;28;20204;-67
2023/05/06 05:22:49;;;;;;;11.63;9.63;;;15.30;84.00;;;18.26;55.84;101647.72;5027010;28;20594;-67
2023/05/06 05:25:16;;;;;;;11.47;10.17;;;15.30;84.20;;;18.28;55.93;101651.00;5033079;28;20234;-68
2023/05/06 05:27:43;;;;;;;10.97;9.87;;;15.30;84.20;;;18.30;55.77;101656.97;5033273;28;20222;-67
2023/05/06 05:30:11;;;;;;;11.03;9.33;;;15.30;84.00;;;18.31;55.83;101649.78;5033283;28;20651;-66
2023/05/06 05:32:38;;;;;;;13.93;10.27;;;15.30;84.20;;;18.34;55.76;101652.88;5032052;28;20196;-66
2023/05/06 05:35:08;;;;;;;10.77;9.43;;;15.30;84.20;;;18.37;55.84;101649.81;5033113;28;20749;-67
2023/05/06 05:37:36;;;;;;;11.57;10.47;;;15.30;84.30;;;18.40;55.69;101654.72;5032299;28;20198;-66
2023/05/06 05:40:06;;;;;;;10.50;9.50;;;15.40;84.30;;;18.41;55.59;101655.53;5032916;28;20540;-67
2023/05/06 05:42:33;;;;;;;10.07;9.07;;;15.40;83.90;;;18.40;55.88;101660.06;5032890;28;20197;-68
2023/05/06 05:45:00;;;;;;;10.70;9.63;;;15.50;84.10;;;18.44;55.68;101663.97;5032848;28;20741;-67
2023/05/06 05:47:27;;;;;;;11.63;10.20;;;15.50;84.00;;;18.50;55.67;101665.84;5032744;28;20225;-67
2023/05/06 05:49:54;;;;;;;10.47;9.37;;;15.50;84.20;;;18.56;55.56;101664.22;5035566;28;20198;-67
2023/05/06 05:52:21;;;;;;;13.10;9.30;;;15.50;84.20;;;18.62;55.44;101668.72;5036919;28;20206;-67
2023/05/06 05:54:48;;;;;;;10.30;9.03;;;15.50;83.80;;;18.66;55.08;101668.13;5036624;28;20225;-67
2023/05/06 05:57:16;;;;;;;11.10;10.00;;;15.60;83.90;;;18.75;55.35;101666.91;5036809;28;20558;-66
2023/05/06 05:59:43;;;;;;;11.63;9.33;;;15.60;83.90;;;18.86;55.02;101666.28;5036661;28;20200;-66
2023/05/06 06:02:10;;;;;;;10.80;9.63;;;15.70;84.00;;;18.96;54.96;101671.19;5037221;28;20191;-66
2023/05/06 06:04:37;;;;;;;9.83;8.67;;;15.80;83.70;;;19.07;54.70;101672.41;5036743;28;20222;-68
2023/05/06 06:07:04;;;;;;;8.97;8.07;;;15.80;83.40;;;19.14;54.33;101673.22;5035938;28;20603;-68
2023/05/06 06:09:31;;;;;;;11.20;9.60;;;15.90;82.70;;;19.20;53.89;101667.91;5035586;28;20555;-66
2023/05/06 06:11:58;;;;;;;11.30;9.27;;;16.00;82.40;;;19.26;53.86;101668.88;5036503;28;20194;-67
2023/05/06 06:14:26;;;;;;;9.40;8.30;;;16.00;82.30;;;19.31;53.58;101674.44;5034367;28;20214;-66
2023/05/06 06:16:54;;;;;;;11.47;9.37;;;16.00;81.70;;;19.33;53.08;101672.38;5036846;28;20194;-66
2023/05/06 06:19:21;;;;;;;9.60;8.60;;;16.10;81.00;;;19.34;53.14;101679.34;5036454;28;20278;-66
2023/05/06 06:21:48;;;;;;;9.27;8.37;;;16.10;81.20;;;19.36;52.79;101680.00;5036330;28;20199;-67
2023/05/06 06:24:15;;;;;;;10.57;9.57;;;16.20;81.10;;;19.39;52.87;101685.75;5036092;28;20225;-66
2023/05/06 06:26:42;;;;;;;9.90;8.83;;;16.20;80.70;;;19.42;52.68;101682.66;5036467;28;20667;-66
2023/05/06 06:29:08;;;;;;;9.17;8.27;;;16.20;80.30;;;19.47;52.74;101682.00;5036570;28;20613;-66
2023/05/06 06:31:37;;;;;;;8.37;7.57;;;16.20;80.40;;;19.51;52.04;101689.44;5036200;28;20194;-66
2023/05/06 06:34:07;;;;;;;11.50;8.27;;;16.30;79.90;;;19.59;52.47;101696.38;5035667;28;20674;-65
2023/05/06 06:36:34;;;;;;;8.50;7.70;;;16.30;80.20;;;19.67;52.27;101698.00;5035668;28;20194;-67
2023/05/06 06:39:02;;;;;;;9.57;8.53;;;16.40;80.20;;;19.71;51.59;101694.69;5035831;28;20195;-66
2023/05/06 06:41:29;;;;;;;10.10;9.10;;;16.50;79.80;;;19.74;51.48;101691.59;5036078;28;20194;-67
2023/05/06 06:43:55;;;;;;;10.20;9.20;;;16.50;79.50;;;19.80;51.44;101696.09;5035514;28;20272;-65
2023/05/06 06:46:22;;;;;;;10.37;8.87;;;16.60;79.50;;;19.87;51.27;101707.56;5036074;28;20190;-67
2023/05/06 06:48:51;;;;;;;10.43;7.67;;;16.60;79.20;;;19.94;51.03;101703.06;5035844;28;20296;-66
2023/05/06 06:51:18;;;;;;;10.60;7.97;;;16.70;78.60;;;19.94;50.74;101702.22;5036040;28;20205;-65
2023/05/06 06:53:47;;;;;;;10.30;8.10;;;16.70;78.20;;;19.93;50.48;101709.41;5035282;28;20194;-67
2023/05/06 06:56:14;;;;;;;9.13;8.23;;;16.70;77.70;;;19.89;50.97;101718.06;5035831;28;20550;-67
2023/05/06 06:58:41;;;;;;;9.53;8.50;;;16.70;77.90;;;19.86;50.90;101718.47;5035757;28;20191;-66
2023/05/06 07:01:09;;;;;;;10.00;8.90;;;16.70;77.60;;;19.78;50.94;101718.72;5034776;28;20244;-66
2023/05/06 07:03:36;;;;;;;13.30;11.13;;;16.60;77.60;;;19.74;50.62;101722.84;5035046;28;20616;-66
2023/05/06 07:06:04;;;;;;;18.27;15.10;;;16.60;77.60;;;19.71;51.04;101713.38;5035112;28;20194;-66
2023/05/06 07:08:31;;;;;;;15.60;13.87;;;16.60;78.10;;;19.74;51.12;101712.97;5034522;28;20678;-66
2023/05/06 07:10:58;;;;;;;15.37;13.57;;;16.60;78.40;;;19.81;50.86;101713.78;5035485;28;20553;-67
2023/05/06 07:13:25;;;;;;;10.43;8.77;;;16.60;78.30;;;19.89;50.61;101710.88;5035070;28;20206;-66
2023/05/06 07:15:52;;;;;;;10.17;8.30;;;16.60;78.20;;;19.96;50.60;101714.34;5023764;28;20226;-66
2023/05/06 07:18:19;;;;;;;10.13;9.13;;;16.70;78.40;;;20.02;50.41;101718.81;5035214;28;20191;-66
2023/05/06 07:20:46;;;;;;;12.33;9.40;;;16.70;78.00;;;20.04;50.26;101724.78;5035502;28;20195;-66
2023/05/06 07:23:14;;;;;;;8.10;7.33;;;16.70;77.50;;;20.02;50.24;101721.50;5035132;28;20202;-66
2023/05/06 07:25:41;;;;;;;10.30;9.30;;;16.70;77.30;;;20.08;50.40;101733.22;5034894;28;20207;-67
2023/05/06 07:28:08;;;;;;;9.70;8.70;;;16.70;77.30;;;20.08;49.97;101726.00;5035208;28;20229;-66
2023/05/06 07:30:37;;;;;;;10.97;9.87;;;16.80;77.50;;;20.15;49.78;101725.97;5034663;28;20685;-66
2023/05/06 07:33:04;;;;;;;20.33;17.60;;;16.80;77.40;;;20.22;49.87;101726.78;5034888;28;20198;-67
2023/05/06 07:35:31;;;;;;;18.87;16.83;;;16.80;77.10;;;20.31;50.12;101730.03;5035081;28;20210;-66
2023/05/06 07:37:58;;;;;;;21.57;17.63;;;16.90;77.40;;;20.38;49.66;101736.16;5033209;28;20516;-66
2023/05/06 07:40:27;;;;;;;27.40;23.17;;;16.90;76.80;;;20.38;49.26;101737.00;5033771;28;20195;-66
2023/05/06 07:42:54;;;;;;;21.90;17.10;;;17.00;76.10;;;20.31;49.11;101746.06;5033916;28;20599;-66
2023/05/06 07:45:23;;;;;;;26.00;20.77;;;17.00;76.40;;;20.29;49.24;101745.47;5035069;28;20221;-68
2023/05/06 07:47:50;;;;;;;24.40;20.30;;;17.00;76.30;;;20.25;49.60;101748.56;5034400;28;20211;-66
2023/05/06 07:50:17;;;;;;;22.43;18.23;;;17.00;76.00;;;20.22;49.55;101749.00;5034500;28;20191;-67
2023/05/06 07:52:44;;;;;;;23.07;19.43;;;17.00;76.20;;;20.25;49.35;101743.22;5034445;28;20273;-66
2023/05/06 07:55:11;;;;;;;22.80;18.33;;;17.00;76.30;;;20.29;49.38;101738.28;5034001;28;20230;-67
2023/05/06 07:57:40;;;;;;;21.93;18.87;;;17.10;76.30;;;20.37;49.46;101745.25;5034300;28;20265;-67
2023/05/06 08:00:08;;;;;;;21.87;19.07;;;17.10;76.40;;;20.44;49.10;101746.03;5033772;28;20191;-67
2023/05/06 08:02:37;;;;;;;19.57;17.40;;;17.10;76.30;;;20.53;49.12;101750.06;5034324;28;20658;-67
2023/05/06 08:05:07;;;;;;;14.97;13.37;;;17.10;76.30;;;20.62;49.34;101759.47;5034126;28;20217;-67
2023/05/06 08:07:34;;;;;;;16.73;15.03;;;17.20;76.60;;;20.69;48.85;101755.75;5033721;28;20230;-68
2023/05/06 08:10:01;;;;;;;19.27;14.13;;;17.30;76.70;;;20.77;49.25;101752.00;5034273;28;20697;-67
2023/05/06 08:12:29;;;;;;;14.20;11.57;;;17.40;76.70;;;20.84;49.09;101752.75;5026307;28;20202;-67
2023/05/06 08:14:57;;;;;;;15.23;11.53;;;17.40;76.20;;;20.85;49.12;101751.72;5019984;28;20725;-66
2023/05/06 08:17:24;;;;;;;13.13;10.53;;;17.50;76.00;;;20.85;48.99;101765.09;5034001;28;20200;-67
2023/05/06 08:19:51;;;;;;;14.27;12.27;;;17.50;75.40;;;20.83;48.74;101756.47;5033906;28;20201;-66
2023/05/06 08:22:18;;;;;;;21.83;19.07;;;17.50;75.40;;;20.89;48.85;101758.28;5033865;28;20195;-66
2023/05/06 08:24:45;;;;;;;17.67;14.23;;;17.60;75.60;;;21.00;48.53;101767.47;5033379;28;20294;-68
2023/05/06 08:27:12;;;;;;;12.57;11.27;;;17.60;75.60;;;;;;5033465;28;20187;-66
2023/05/06 08:29:39;;;;;;;15.23;11.90;;;17.60;75.60;;;21.15;48.61;101774.19;5033214;28;20214;-68
2023/05/06 08:32:07;;;;;;;17.43;15.50;;;17.70;75.40;;;21.13;47.70;101778.94;5033332;28;20186;-66
2023/05/06 08:34:34;;;;;;;15.30;12.93;;;17.70;74.70;;;21.11;47.83;101769.47;5033327;28;20240;-67
2023/05/06 08:37:01;;;;;;;14.60;12.80;;;17.70;74.40;;;21.05;47.65;101773.84;5033356;28;20203;-65
2023/05/06 08:39:29;;;;;;;14.70;13.20;;;17.70;74.30;;;21.07;48.36;101774.44;5033405;28;20187;-67
2023/05/06 08:41:59;;;;;;;14.30;12.80;;;17.70;74.60;;;21.11;48.05;101775.63;5033228;28;20201;-66
2023/05/06 08:44:27;;;;;;;13.63;12.23;;;17.70;74.60;;;21.14;48.21;101780.56;5033366;28;20286;-67
2023/05/06 08:46:54;;;;;;;15.67;11.70;;;17.80;75.30;;;21.17;47.66;101769.41;5033552;28;20297;-67
2023/05/06 08:49:22;;;;;;;13.93;12.37;;;17.80;74.60;;;21.20;48.01;101782.38;5033512;28;20621;-66
2023/05/06 08:51:54;;;;;;;14.10;12.60;;;17.80;74.60;;;21.23;47.78;101789.97;5033462;28;20216;-66
2023/05/06 08:54:23;;;;;;;13.67;12.27;;;17.90;74.60;;;21.24;47.84;101796.97;5032979;28;20678;-66
2023/05/06 08:56:55;;;;;;;14.57;12.70;;;17.90;74.60;;;21.24;48.26;101791.59;5032116;28;20669;-67
2023/05/06 08:59:24;;;;;;;13.80;12.20;;;17.90;74.30;;;21.26;47.92;101788.69;5032943;28;20186;-67
2023/05/06 09:01:52;;;;;;;14.17;12.67;;;18.00;74.30;;;21.34;48.25;101789.25;5032194;28;20191;-65
2023/05/06 09:04:19;;;;;;;13.40;12.00;;;18.00;74.70;;;21.52;47.59;101794.66;5032384;28;20242;-65
2023/05/06 09:06:47;;;;;;;13.77;12.37;;;18.00;74.40;;;21.59;47.54;101795.41;5032192;28;20252;-66
2023/05/06 09:09:14;;;;;;;14.23;12.73;;;18.20;74.30;;;21.76;47.46;101795.66;5032509;28;20218;-66
2023/05/06 09:11:41;;;;;;;13.97;12.57;;;18.20;74.20;;;21.93;46.90;101795.91;5033064;28;20194;-67
2023/05/06 09:14:11;;;;;;;13.00;11.47;;;18.30;74.10;;;22.13;46.57;101797.31;5031987;28;20225;-66
2023/05/06 09:16:41;;;;;;;15.23;13.57;;;18.40;73.70;;;22.98;45.54;101794.56;5032246;28;20692;-66
2023/05/06 09:19:08;;;;;;;15.60;13.20;;;18.60;74.40;;;23.73;43.89;101796.38;5032549;28;20281;-66
2023/05/06 09:21:37;;;;;;;13.43;12.17;;;18.90;73.10;;;24.42;42.55;101786.53;5032987;28;20650;-66
2023/05/06 09:24:08;;;;;;;13.80;12.30;;;19.40;72.60;;;25.11;41.80;101791.59;5032297;28;20224;-66
2023/05/06 09:26:38;;;;;;;13.23;11.87;;;19.80;71.70;;;25.52;40.30;101788.50;5032284;28;20209;-67
2023/05/06 09:29:05;;;;;;;14.10;12.60;;;20.20;70.40;;;25.53;40.11;101792.81;5032306;28;20225;-67
2023/05/06 09:31:40;;;;;;;14.07;12.37;;;20.50;68.70;;;25.33;40.79;101789.81;5032232;28;20190;-66
2023/05/06 09:34:07;;;;;;;13.67;11.30;;;20.70;67.60;;;25.09;41.06;101796.41;5032430;28;20224;-67
2023/05/06 09:36:34;;;;;;;14.30;12.80;;;20.80;67.00;;;24.88;40.54;101799.81;5033039;28;20218;-67
2023/05/06 09:39:01;;;;;;;15.83;14.23;;;20.90;66.20;;;24.69;40.96;101793.81;5033325;28;20540;-68
2023/05/06 09:41:29;;;;;;;16.10;14.43;;;20.90;65.10;;;24.57;40.62;101784.16;5032382;28;20662;-68
2023/05/06 09:43:58;;;;;;;18.83;16.20;;;20.80;64.70;;;25.15;40.56;101786.53;5032049;28;20250;-66
2023/05/06 09:46:26;;;;;;;20.70;18.50;;;20.80;66.10;;;26.56;38.72;101772.25;5032559;28;20222;-66
2023/05/06 09:48:57;;;;;;;17.63;15.40;;;21.10;66.50;;;27.50;36.79;101778.78;5032188;28;20631;-67
2023/05/06 09:51:27;;;;;;;18.73;14.23;;;21.60;65.60;;;28.46;34.81;101782.72;5032113;28;20198;-66
2023/05/06 09:53:55;;;;;;;15.13;13.47;;;22.00;62.80;;;29.64;32.95;101785.22;5032308;28;20606;-67
2023/05/06 09:56:23;;;;;;;15.30;13.87;;;22.60;60.60;;;30.70;31.76;101782.81;5031919;28;20187;-66
2023/05/06 09:58:53;;;;;;;13.80;12.17;;;23.20;60.60;;;31.26;29.98;101784.00;5032317;28;20278;-67
2023/05/06 10:01:20;;;;;;;13.13;11.73;;;23.90;58.00;;;31.33;29.83;101784.47;5032342;28;20205;-67
2023/05/06 10:04:06;;;;;;;11.73;10.53;;;24.40;57.60;;;30.96;30.62;101778.03;5031365;28;20305;-67
2023/05/06 10:06:35;;;;;;;12.33;11.03;;;24.70;55.40;;;30.63;30.30;101785.88;5032027;28;20182;-66